createdAt,value
2018-12-08T00:00:52.356Z,0.00
2018-12-08T00:01:52.383Z,0.00
2018-12-08T00:02:52.370Z,0.00
2018-12-08T00:03:52.339Z,0.00
2018-12-08T00:04:52.336Z,0.00
2018-12-08T00:05:52.322Z,0.00
2018-12-08T00:06:52.295Z,0.00
2018-12-08T00:07:52.301Z,0.00
2018-12-08T00:08:52.266Z,0.00
2018-12-08T00:09:52.256Z,0.00
2018-12-08T00:10:52.243Z,0.00
2018-12-08T00:11:52.235Z,0.00
2018-12-08T00:12:52.461Z,0.00
2018-12-08T00:13:52.209Z,0.00
2018-12-08T00:14:52.282Z,0.00
2018-12-08T00:15:52.200Z,0.00
2018-12-08T00:16:52.199Z,0.00
2018-12-08T00:17:52.174Z,0.00
2018-12-08T00:18:52.176Z,0.00
2018-12-08T00:19:52.143Z,0.00
2018-12-08T00:20:52.147Z,0.00
2018-12-08T00:21:52.136Z,0.00
2018-12-08T00:22:52.126Z,0.00
2018-12-08T00:23:52.121Z,0.00
2018-12-08T00:24:52.093Z,0.00
2018-12-08T00:25:52.080Z,0.00
2018-12-08T00:26:52.067Z,0.00
2018-12-08T00:27:52.059Z,0.00
2018-12-08T00:28:52.067Z,0.00
2018-12-08T00:29:52.056Z,0.00
2018-12-08T00:30:52.032Z,0.00
2018-12-08T00:31:52.030Z,0.00
2018-12-08T00:32:52.001Z,0.00
2018-12-08T00:33:52.014Z,0.00
2018-12-08T00:34:51.979Z,0.00
2018-12-08T00:35:51.986Z,0.00
2018-12-08T00:36:51.971Z,0.00
2018-12-08T00:37:51.951Z,0.00
2018-12-08T00:38:51.954Z,0.00
2018-12-08T00:39:51.922Z,0.00
2018-12-08T00:40:51.921Z,0.00
2018-12-08T00:41:51.910Z,0.00
2018-12-08T00:42:51.895Z,0.00
2018-12-08T00:43:51.901Z,0.00
2018-12-08T00:44:51.881Z,0.00
2018-12-08T00:45:51.858Z,0.00
2018-12-08T00:46:51.846Z,0.00
2018-12-08T00:47:51.839Z,0.00
2018-12-08T00:48:51.847Z,0.00
2018-12-08T00:49:51.821Z,0.00
2018-12-08T00:50:51.802Z,0.00
2018-12-08T00:51:51.793Z,0.00
2018-12-08T00:52:51.794Z,0.00
2018-12-08T00:53:51.895Z,0.00
2018-12-08T00:54:51.775Z,0.00
2018-12-08T00:55:51.747Z,0.00
2018-12-08T00:56:51.761Z,0.00
2018-12-08T00:57:51.726Z,0.00
2018-12-08T00:58:51.784Z,0.00
2018-12-08T00:59:51.709Z,0.00
2018-12-08T01:00:51.714Z,0.00
2018-12-08T01:01:51.692Z,0.00
2018-12-08T01:02:51.695Z,0.00
2018-12-08T01:03:51.683Z,0.00
2018-12-08T01:04:51.649Z,0.00
2018-12-08T01:05:51.641Z,0.00
2018-12-08T01:06:51.633Z,0.00
2018-12-08T01:07:51.616Z,0.00
2018-12-08T01:08:51.671Z,0.00
2018-12-08T01:09:51.603Z,0.00
2018-12-08T01:10:51.583Z,0.00
2018-12-08T01:11:51.593Z,0.00
2018-12-08T01:12:51.563Z,0.00
2018-12-08T01:13:51.578Z,0.00
2018-12-08T01:14:51.540Z,0.00
2018-12-08T01:15:51.527Z,0.00
2018-12-08T01:16:51.519Z,0.00
2018-12-08T01:17:51.508Z,0.00
2018-12-08T01:18:51.524Z,0.00
2018-12-08T01:19:51.484Z,0.00
2018-12-08T01:20:51.471Z,0.00
2018-12-08T01:21:51.468Z,0.00
2018-12-08T01:22:51.455Z,0.00
2018-12-08T01:23:51.464Z,0.00
2018-12-08T01:24:51.431Z,0.00
2018-12-08T01:25:51.422Z,0.00
2018-12-08T01:26:51.413Z,0.00
2018-12-08T01:27:51.405Z,0.00
2018-12-08T01:28:51.414Z,0.00
2018-12-08T01:29:51.377Z,0.00
2018-12-08T01:30:51.365Z,0.00
2018-12-08T01:31:51.358Z,0.00
2018-12-08T01:32:51.343Z,0.00
2018-12-08T01:33:51.354Z,0.00
2018-12-08T01:34:51.325Z,0.00
2018-12-08T01:35:51.315Z,0.00
2018-12-08T01:36:51.302Z,0.00
2018-12-08T01:37:51.293Z,0.00
2018-12-08T01:38:51.304Z,0.00
2018-12-08T01:39:51.268Z,0.00
2018-12-08T01:40:51.258Z,0.00
2018-12-08T01:41:51.247Z,0.00
2018-12-08T01:42:51.238Z,0.00
2018-12-08T01:43:51.254Z,0.00
2018-12-08T01:44:51.216Z,0.00
2018-12-08T01:45:51.206Z,0.00
2018-12-08T01:46:51.220Z,0.00
2018-12-08T01:47:51.183Z,0.00
2018-12-08T01:48:51.212Z,0.00
2018-12-08T01:49:51.160Z,0.00
2018-12-08T01:50:51.148Z,0.00
2018-12-08T01:51:51.135Z,0.00
2018-12-08T01:52:51.127Z,0.00
2018-12-08T01:53:51.122Z,0.00
2018-12-08T01:54:51.135Z,0.00
2018-12-08T01:55:51.093Z,0.00
2018-12-08T01:56:51.100Z,0.00
2018-12-08T01:57:51.074Z,0.00
2018-12-08T01:58:51.074Z,0.00
2018-12-08T01:59:51.072Z,0.00
2018-12-08T02:00:51.041Z,0.00
2018-12-08T02:01:51.026Z,0.00
2018-12-08T02:02:51.028Z,0.00
2018-12-08T02:03:52.833Z,0.00
2018-12-08T02:04:51.016Z,0.00
2018-12-08T02:05:50.984Z,0.00
2018-12-08T02:06:50.980Z,0.00
2018-12-08T02:07:50.970Z,0.00
2018-12-08T02:08:50.974Z,0.00
2018-12-08T02:09:50.965Z,0.00
2018-12-08T02:10:50.926Z,0.00
2018-12-08T02:11:50.922Z,0.00
2018-12-08T02:12:50.904Z,0.00
2018-12-08T02:13:50.928Z,0.00
2018-12-08T02:14:50.947Z,0.00
2018-12-08T02:15:50.874Z,0.00
2018-12-08T02:16:50.870Z,0.00
2018-12-08T02:17:50.858Z,0.00
2018-12-08T02:18:50.846Z,0.00
2018-12-08T02:19:50.854Z,0.00
2018-12-08T02:20:50.820Z,0.00
2018-12-08T02:21:50.835Z,0.00
2018-12-08T02:22:50.793Z,0.00
2018-12-08T02:23:50.785Z,0.00
2018-12-08T02:24:50.797Z,0.00
2018-12-08T02:25:50.769Z,0.00
2018-12-08T02:26:50.779Z,0.00
2018-12-08T02:27:50.742Z,0.00
2018-12-08T02:28:50.727Z,0.00
2018-12-08T02:29:50.742Z,0.00
2018-12-08T02:30:50.708Z,0.00
2018-12-08T02:31:50.699Z,0.00
2018-12-08T02:32:50.697Z,0.00
2018-12-08T02:33:50.700Z,0.00
2018-12-08T02:34:50.685Z,0.00
2018-12-08T02:35:50.654Z,0.00
2018-12-08T02:36:50.642Z,0.00
2018-12-08T02:37:50.662Z,0.00
2018-12-08T02:38:50.631Z,0.00
2018-12-08T02:39:50.632Z,0.00
2018-12-08T02:40:50.598Z,0.00
2018-12-08T02:41:50.601Z,0.00
2018-12-08T02:42:50.577Z,0.00
2018-12-08T02:43:50.565Z,0.00
2018-12-08T02:44:50.609Z,0.00
2018-12-08T02:45:50.554Z,0.00
2018-12-08T02:46:50.530Z,0.00
2018-12-08T02:47:50.521Z,0.00
2018-12-08T02:48:50.508Z,0.00
2018-12-08T02:49:50.539Z,0.00
2018-12-08T02:50:50.518Z,0.00
2018-12-08T02:51:50.481Z,0.00
2018-12-08T02:52:50.479Z,0.00
2018-12-08T02:53:50.465Z,0.00
2018-12-08T02:54:50.467Z,0.00
2018-12-08T02:55:50.435Z,0.00
2018-12-08T02:56:50.430Z,0.00
2018-12-08T02:57:50.422Z,0.00
2018-12-08T02:58:50.397Z,0.00
2018-12-08T02:59:50.412Z,0.00
2018-12-08T03:00:50.379Z,0.00
2018-12-08T03:01:50.364Z,0.00
2018-12-08T03:02:50.353Z,0.00
2018-12-08T03:03:50.355Z,0.00
2018-12-08T03:04:50.372Z,0.00
2018-12-08T03:05:50.329Z,0.00
2018-12-08T03:06:50.317Z,0.00
2018-12-08T03:07:50.305Z,0.00
2018-12-08T03:08:50.303Z,0.00
2018-12-08T03:09:50.317Z,0.00
2018-12-08T03:10:50.273Z,0.00
2018-12-08T03:11:50.255Z,0.00
2018-12-08T03:12:50.246Z,0.00
2018-12-08T03:13:50.237Z,0.00
2018-12-08T03:14:50.252Z,0.00
2018-12-08T03:15:50.216Z,0.00
2018-12-08T03:16:50.200Z,0.00
2018-12-08T03:17:50.213Z,0.00
2018-12-08T03:18:50.180Z,0.00
2018-12-08T03:19:50.223Z,0.00
2018-12-08T03:20:50.182Z,0.00
2018-12-08T03:21:50.158Z,0.00
2018-12-08T03:22:50.136Z,0.00
2018-12-08T03:23:50.133Z,0.00
2018-12-08T03:24:50.112Z,0.00
2018-12-08T03:25:50.149Z,0.00
2018-12-08T03:26:50.092Z,0.00
2018-12-08T03:27:50.086Z,0.00
2018-12-08T03:28:50.071Z,0.00
2018-12-08T03:29:50.076Z,0.00
2018-12-08T03:30:50.079Z,0.00
2018-12-08T03:31:50.038Z,0.00
2018-12-08T03:32:50.034Z,0.00
2018-12-08T03:33:50.016Z,0.00
2018-12-08T03:34:50.011Z,0.00
2018-12-08T03:35:50.029Z,0.00
2018-12-08T03:36:50.029Z,0.00
2018-12-08T03:37:49.969Z,0.00
2018-12-08T03:38:49.960Z,0.00
2018-12-08T03:39:49.949Z,0.00
2018-12-08T03:40:49.979Z,0.00
2018-12-08T03:41:49.925Z,0.00
2018-12-08T03:42:49.997Z,0.00
2018-12-08T03:43:49.919Z,0.00
2018-12-08T03:44:49.901Z,0.00
2018-12-08T03:45:49.902Z,0.00
2018-12-08T03:46:49.883Z,0.00
2018-12-08T03:47:49.887Z,0.00
2018-12-08T03:48:49.861Z,0.00
2018-12-08T03:49:49.838Z,0.00
2018-12-08T03:50:49.861Z,0.00
2018-12-08T03:51:49.824Z,0.00
2018-12-08T03:52:49.807Z,0.00
2018-12-08T03:53:49.793Z,0.00
2018-12-08T03:54:49.783Z,0.00
2018-12-08T03:55:49.796Z,0.00
2018-12-08T03:56:49.770Z,0.00
2018-12-08T03:57:49.753Z,0.00
2018-12-08T03:58:49.740Z,0.00
2018-12-08T03:59:49.729Z,0.00
2018-12-08T04:00:49.742Z,0.00
2018-12-08T04:01:49.721Z,0.00
2018-12-08T04:02:49.704Z,0.00
2018-12-08T04:03:49.708Z,0.00
2018-12-08T04:04:49.684Z,0.00
2018-12-08T04:05:49.702Z,0.00
2018-12-08T04:06:49.673Z,0.00
2018-12-08T04:07:49.642Z,0.00
2018-12-08T04:08:49.642Z,0.00
2018-12-08T04:09:49.637Z,0.00
2018-12-08T04:10:49.669Z,0.00
2018-12-08T04:11:49.621Z,0.00
2018-12-08T04:12:49.587Z,0.00
2018-12-08T04:13:49.590Z,0.00
2018-12-08T04:14:49.584Z,0.00
2018-12-08T04:15:49.587Z,0.00
2018-12-08T04:16:49.559Z,0.00
2018-12-08T04:17:49.556Z,0.00
2018-12-08T04:18:49.526Z,0.00
2018-12-08T04:19:49.513Z,0.00
2018-12-08T04:20:49.535Z,0.00
2018-12-08T04:21:49.493Z,0.00
2018-12-08T04:22:49.479Z,0.00
2018-12-08T04:23:49.470Z,0.00
2018-12-08T04:24:49.460Z,0.00
2018-12-08T04:25:49.491Z,0.00
2018-12-08T04:26:49.449Z,0.00
2018-12-08T04:27:49.432Z,0.00
2018-12-08T04:28:49.415Z,0.00
2018-12-08T04:29:49.402Z,0.00
2018-12-08T04:30:49.415Z,0.00
2018-12-08T04:31:49.383Z,0.00
2018-12-08T04:32:49.416Z,0.00
2018-12-08T04:33:49.358Z,0.00
2018-12-08T04:34:49.353Z,0.00
2018-12-08T04:35:49.363Z,0.00
2018-12-08T04:36:49.338Z,0.00
2018-12-08T04:37:49.319Z,0.00
2018-12-08T04:38:49.320Z,0.00
2018-12-08T04:39:49.316Z,0.00
2018-12-08T04:40:49.347Z,0.00
2018-12-08T04:41:49.306Z,0.00
2018-12-08T04:42:49.269Z,0.00
2018-12-08T04:43:49.251Z,0.00
2018-12-08T04:44:49.253Z,0.00
2018-12-08T04:45:49.233Z,0.00
2018-12-08T04:46:49.259Z,0.00
2018-12-08T04:47:49.209Z,0.00
2018-12-08T04:48:49.207Z,0.00
2018-12-08T04:49:49.191Z,0.00
2018-12-08T04:50:49.257Z,0.00
2018-12-08T04:51:49.193Z,0.00
2018-12-08T04:52:49.166Z,0.00
2018-12-08T04:53:49.163Z,0.00
2018-12-08T04:54:49.133Z,0.00
2018-12-08T04:55:49.120Z,0.00
2018-12-08T04:56:49.138Z,0.00
2018-12-08T04:57:49.111Z,0.00
2018-12-08T04:58:49.097Z,0.00
2018-12-08T04:59:49.117Z,0.00
2018-12-08T05:00:49.066Z,0.00
2018-12-08T05:01:49.106Z,0.00
2018-12-08T05:02:49.042Z,0.00
2018-12-08T05:03:49.032Z,0.00
2018-12-08T05:04:49.020Z,0.00
2018-12-08T05:05:49.017Z,0.00
2018-12-08T05:06:49.043Z,0.00
2018-12-08T05:07:48.987Z,0.00
2018-12-08T05:08:48.975Z,0.00
2018-12-08T05:09:48.969Z,0.00
2018-12-08T05:10:48.956Z,0.00
2018-12-08T05:11:48.972Z,0.00
2018-12-08T05:12:48.953Z,0.00
2018-12-08T05:13:48.929Z,0.00
2018-12-08T05:14:48.913Z,0.00
2018-12-08T05:15:48.902Z,0.00
2018-12-08T05:16:48.915Z,0.00
2018-12-08T05:17:48.884Z,0.00
2018-12-08T05:18:48.868Z,0.00
2018-12-08T05:19:48.863Z,0.00
2018-12-08T05:20:48.853Z,0.00
2018-12-08T05:21:48.856Z,0.00
2018-12-08T05:22:48.830Z,0.00
2018-12-08T05:23:48.820Z,0.00
2018-12-08T05:24:48.803Z,0.00
2018-12-08T05:25:48.796Z,0.00
2018-12-08T05:26:48.805Z,0.00
2018-12-08T05:27:48.770Z,0.00
2018-12-08T05:28:48.765Z,0.00
2018-12-08T05:29:48.749Z,0.00
2018-12-08T05:30:48.741Z,0.00
2018-12-08T05:31:48.753Z,0.00
2018-12-08T05:32:48.715Z,0.00
2018-12-08T05:33:48.704Z,0.00
2018-12-08T05:34:48.769Z,0.00
2018-12-08T05:35:48.683Z,0.00
2018-12-08T05:36:48.701Z,0.00
2018-12-08T05:37:48.672Z,0.00
2018-12-08T05:38:48.652Z,0.00
2018-12-08T05:39:48.641Z,0.00
2018-12-08T05:40:48.629Z,0.00
2018-12-08T05:41:48.644Z,0.00
2018-12-08T05:42:48.607Z,0.00
2018-12-08T05:43:48.602Z,0.00
2018-12-08T05:44:48.587Z,0.00
2018-12-08T05:45:48.574Z,0.00
2018-12-08T05:46:49.342Z,0.00
2018-12-08T05:47:48.555Z,0.00
2018-12-08T05:48:48.541Z,0.00
2018-12-08T05:49:48.543Z,0.00
2018-12-08T05:50:48.520Z,0.00
2018-12-08T05:51:48.534Z,0.00
2018-12-08T05:52:48.498Z,0.00
2018-12-08T05:53:48.487Z,0.00
2018-12-08T05:54:48.479Z,0.00
2018-12-08T05:55:48.473Z,0.00
2018-12-08T05:56:48.485Z,0.00
2018-12-08T05:57:48.447Z,0.00
2018-12-08T05:58:48.433Z,0.00
2018-12-08T05:59:48.421Z,0.00
2018-12-08T06:00:48.411Z,0.00
2018-12-08T06:01:48.424Z,0.00
2018-12-08T06:02:48.387Z,0.00
2018-12-08T06:03:48.385Z,0.00
2018-12-08T06:04:48.365Z,0.00
2018-12-08T06:05:48.356Z,0.00
2018-12-08T06:06:48.368Z,0.00
2018-12-08T06:07:48.333Z,0.00
2018-12-08T06:08:48.322Z,0.00
2018-12-08T06:09:48.316Z,0.00
2018-12-08T06:10:48.301Z,0.00
2018-12-08T06:11:48.323Z,0.00
2018-12-08T06:12:48.280Z,0.00
2018-12-08T06:13:48.267Z,0.00
2018-12-08T06:14:48.256Z,0.00
2018-12-08T06:15:48.305Z,0.00
2018-12-08T06:16:48.233Z,0.00
2018-12-08T06:17:48.247Z,0.00
2018-12-08T06:18:48.213Z,0.00
2018-12-08T06:19:48.204Z,0.00
2018-12-08T06:20:48.190Z,0.00
2018-12-08T06:21:48.182Z,0.00
2018-12-08T06:22:48.201Z,0.00
2018-12-08T06:23:48.157Z,0.00
2018-12-08T06:24:48.144Z,0.00
2018-12-08T06:25:48.134Z,0.00
2018-12-08T06:26:48.122Z,0.00
2018-12-08T06:27:48.138Z,0.00
2018-12-08T06:28:48.105Z,0.00
2018-12-08T06:29:48.090Z,0.00
2018-12-08T06:30:48.079Z,0.00
2018-12-08T06:31:48.068Z,0.00
2018-12-08T06:32:48.080Z,0.00
2018-12-08T06:33:48.057Z,0.00
2018-12-08T06:34:48.034Z,0.00
2018-12-08T06:35:48.023Z,0.00
2018-12-08T06:36:48.013Z,0.00
2018-12-08T06:37:48.027Z,0.00
2018-12-08T06:38:47.991Z,0.00
2018-12-08T06:39:47.985Z,0.00
2018-12-08T06:40:47.972Z,0.00
2018-12-08T06:41:47.964Z,0.00
2018-12-08T06:42:47.972Z,0.00
2018-12-08T06:43:47.935Z,0.00
2018-12-08T06:44:47.928Z,0.00
2018-12-08T06:45:47.917Z,0.00
2018-12-08T06:46:47.906Z,0.00
2018-12-08T06:47:47.917Z,0.00
2018-12-08T06:48:47.882Z,0.00
2018-12-08T06:49:47.873Z,0.00
2018-12-08T06:50:47.863Z,0.00
2018-12-08T06:51:47.854Z,0.00
2018-12-08T06:52:47.871Z,0.00
2018-12-08T06:53:47.829Z,0.00
2018-12-08T06:54:47.818Z,0.00
2018-12-08T06:55:47.807Z,0.00
2018-12-08T06:56:47.795Z,0.00
2018-12-08T06:57:47.808Z,0.00
2018-12-08T06:58:47.785Z,0.00
2018-12-08T06:59:47.762Z,0.00
2018-12-08T07:00:47.752Z,0.00
2018-12-08T07:01:47.742Z,0.00
2018-12-08T07:02:47.869Z,0.00
2018-12-08T07:03:47.718Z,0.00
2018-12-08T07:04:47.716Z,0.00
2018-12-08T07:05:47.719Z,0.00
2018-12-08T07:06:47.686Z,0.00
2018-12-08T07:07:47.701Z,0.00
2018-12-08T07:08:47.665Z,0.00
2018-12-08T07:09:47.656Z,0.00
2018-12-08T07:10:47.642Z,0.00
2018-12-08T07:11:47.640Z,0.00
2018-12-08T07:12:47.646Z,0.00
2018-12-08T07:13:47.617Z,0.00
2018-12-08T07:14:47.609Z,0.00
2018-12-08T07:15:47.595Z,0.00
2018-12-08T07:16:47.580Z,0.00
2018-12-08T07:17:47.599Z,0.00
2018-12-08T07:18:47.559Z,0.00
2018-12-08T07:19:47.544Z,0.00
2018-12-08T07:20:47.537Z,0.00
2018-12-08T07:21:47.523Z,0.00
2018-12-08T07:22:47.539Z,0.00
2018-12-08T07:23:47.503Z,0.00
2018-12-08T07:24:47.501Z,0.00
2018-12-08T07:25:47.481Z,0.00
2018-12-08T07:26:47.468Z,0.00
2018-12-08T07:27:47.481Z,0.00
2018-12-08T07:28:47.448Z,5.62
2018-12-08T07:29:47.437Z,5.62
2018-12-08T07:30:47.430Z,5.62
2018-12-08T07:31:47.419Z,5.62
2018-12-08T07:32:47.430Z,5.62
2018-12-08T07:33:47.434Z,5.62
2018-12-08T07:34:47.392Z,11.25
2018-12-08T07:35:47.386Z,11.25
2018-12-08T07:36:47.376Z,11.25
2018-12-08T07:37:47.402Z,11.25
2018-12-08T07:38:47.374Z,11.25
2018-12-08T07:39:47.338Z,11.25
2018-12-08T07:40:47.318Z,11.25
2018-12-08T07:41:47.306Z,11.25
2018-12-08T07:42:47.334Z,11.25
2018-12-08T07:43:47.291Z,11.25
2018-12-08T07:44:47.290Z,11.25
2018-12-08T07:45:47.272Z,11.25
2018-12-08T07:46:47.257Z,11.25
2018-12-08T07:47:47.284Z,11.25
2018-12-08T07:48:47.240Z,11.25
2018-12-08T07:49:47.224Z,16.88
2018-12-08T07:50:47.209Z,16.88
2018-12-08T07:51:47.196Z,16.88
2018-12-08T07:52:47.221Z,11.25
2018-12-08T07:53:47.181Z,11.25
2018-12-08T07:54:47.167Z,11.25
2018-12-08T07:55:47.194Z,16.88
2018-12-08T07:56:47.143Z,28.12
2018-12-08T07:57:47.157Z,28.12
2018-12-08T07:58:47.136Z,22.50
2018-12-08T07:59:47.131Z,16.88
2018-12-08T08:00:47.113Z,11.25
2018-12-08T08:01:47.105Z,11.25
2018-12-08T08:02:47.107Z,11.25
2018-12-08T08:03:47.069Z,11.25
2018-12-08T08:04:47.062Z,11.25
2018-12-08T08:05:47.073Z,11.25
2018-12-08T08:06:47.041Z,11.25
2018-12-08T08:07:47.048Z,11.25
2018-12-08T08:08:47.035Z,11.25
2018-12-08T08:09:47.008Z,5.62
2018-12-08T08:10:47.007Z,11.25
2018-12-08T08:11:46.979Z,11.25
2018-12-08T08:12:46.968Z,5.62
2018-12-08T08:13:46.997Z,5.62
2018-12-08T08:14:46.945Z,11.25
2018-12-08T08:15:46.958Z,11.25
2018-12-08T08:16:46.940Z,11.25
2018-12-08T08:17:46.917Z,16.88
2018-12-08T08:18:46.932Z,22.50
2018-12-08T08:19:46.914Z,16.88
2018-12-08T08:20:46.883Z,16.88
2018-12-08T08:21:46.871Z,16.88
2018-12-08T08:22:46.879Z,22.50
2018-12-08T08:23:46.874Z,33.75
2018-12-08T08:24:46.838Z,39.38
2018-12-08T08:25:46.825Z,39.38
2018-12-08T08:26:46.816Z,39.38
2018-12-08T08:27:46.804Z,45.00
2018-12-08T08:28:46.821Z,39.38
2018-12-08T08:29:46.820Z,39.38
2018-12-08T08:30:46.771Z,33.75
2018-12-08T08:31:46.766Z,39.38
2018-12-08T08:32:46.754Z,33.75
2018-12-08T08:33:46.775Z,33.75
2018-12-08T08:34:46.746Z,39.38
2018-12-08T08:35:46.723Z,39.38
2018-12-08T08:36:46.709Z,50.62
2018-12-08T08:37:46.731Z,56.25
2018-12-08T08:38:46.711Z,39.38
2018-12-08T08:39:46.678Z,28.12
2018-12-08T08:40:46.669Z,33.75
2018-12-08T08:41:46.656Z,39.38
2018-12-08T08:42:46.666Z,45.00
2018-12-08T08:43:46.670Z,45.00
2018-12-08T08:44:46.621Z,39.38
2018-12-08T08:45:46.631Z,39.38
2018-12-08T08:46:46.598Z,33.75
2018-12-08T08:47:46.599Z,39.38
2018-12-08T08:48:46.616Z,50.62
2018-12-08T08:49:46.567Z,67.50
2018-12-08T08:50:46.562Z,61.88
2018-12-08T08:51:46.561Z,50.62
2018-12-08T08:52:46.545Z,45.00
2018-12-08T08:53:46.558Z,45.00
2018-12-08T08:54:46.511Z,61.88
2018-12-08T08:55:46.519Z,78.75
2018-12-08T08:56:46.504Z,73.12
2018-12-08T08:57:46.481Z,73.12
2018-12-08T08:58:46.495Z,61.88
2018-12-08T08:59:46.475Z,61.88
2018-12-08T09:00:46.459Z,61.88
2018-12-08T09:01:46.461Z,56.25
2018-12-08T09:02:46.465Z,45.00
2018-12-08T09:03:46.443Z,61.88
2018-12-08T09:04:46.412Z,67.50
2018-12-08T09:05:46.415Z,78.75
2018-12-08T09:06:46.383Z,61.88
2018-12-08T09:07:46.378Z,67.50
2018-12-08T09:08:46.390Z,67.50
2018-12-08T09:09:46.365Z,56.25
2018-12-08T09:10:46.341Z,39.38
2018-12-08T09:11:46.350Z,33.75
2018-12-08T09:12:46.348Z,28.12
2018-12-08T09:13:46.354Z,39.38
2018-12-08T09:14:46.301Z,39.38
2018-12-08T09:15:46.285Z,45.00
2018-12-08T09:16:46.290Z,45.00
2018-12-08T09:17:46.267Z,39.38
2018-12-08T09:18:46.290Z,33.75
2018-12-08T09:19:46.243Z,33.75
2018-12-08T09:20:46.232Z,39.38
2018-12-08T09:21:46.236Z,33.75
2018-12-08T09:22:46.229Z,28.12
2018-12-08T09:23:46.225Z,28.12
2018-12-08T09:24:46.195Z,28.12
2018-12-08T09:25:46.177Z,33.75
2018-12-08T09:26:46.166Z,28.12
2018-12-08T09:27:46.161Z,28.12
2018-12-08T09:28:46.168Z,28.12
2018-12-08T09:29:46.133Z,33.75
2018-12-08T09:30:46.144Z,33.75
2018-12-08T09:31:46.118Z,33.75
2018-12-08T09:32:46.129Z,33.75
2018-12-08T09:33:46.117Z,39.38
2018-12-08T09:34:46.080Z,39.38
2018-12-08T09:35:46.089Z,33.75
2018-12-08T09:36:46.071Z,33.75
2018-12-08T09:37:46.051Z,39.38
2018-12-08T09:38:46.082Z,45.00
2018-12-08T09:39:46.023Z,61.88
2018-12-08T09:40:46.014Z,50.62
2018-12-08T09:41:46.003Z,45.00
2018-12-08T09:42:46.000Z,45.00
2018-12-08T09:43:46.012Z,45.00
2018-12-08T09:44:45.975Z,45.00
2018-12-08T09:45:45.963Z,56.25
2018-12-08T09:46:45.955Z,73.12
2018-12-08T09:47:45.936Z,73.12
2018-12-08T09:48:45.967Z,73.12
2018-12-08T09:49:45.917Z,56.25
2018-12-08T09:50:45.908Z,45.00
2018-12-08T09:51:45.934Z,39.38
2018-12-08T09:52:45.895Z,45.00
2018-12-08T09:53:45.872Z,50.62
2018-12-08T09:54:47.516Z,45.00
2018-12-08T09:55:45.863Z,45.00
2018-12-08T09:56:45.849Z,45.00
2018-12-08T09:57:45.831Z,45.00
2018-12-08T09:58:45.817Z,56.25
2018-12-08T09:59:45.848Z,61.88
2018-12-08T10:00:45.799Z,56.25
2018-12-08T10:01:45.800Z,56.25
2018-12-08T10:02:45.787Z,45.00
2018-12-08T10:03:45.764Z,50.62
2018-12-08T10:04:45.779Z,61.88
2018-12-08T10:05:45.748Z,56.25
2018-12-08T10:06:45.738Z,56.25
2018-12-08T10:07:45.725Z,45.00
2018-12-08T10:08:45.717Z,39.38
2018-12-08T10:09:45.724Z,45.00
2018-12-08T10:10:45.686Z,50.62
2018-12-08T10:11:45.677Z,45.00
2018-12-08T10:12:45.698Z,50.62
2018-12-08T10:13:45.690Z,45.00
2018-12-08T10:14:45.668Z,50.62
2018-12-08T10:15:45.633Z,50.62
2018-12-08T10:16:45.634Z,50.62
2018-12-08T10:17:45.613Z,45.00
2018-12-08T10:18:45.601Z,39.38
2018-12-08T10:19:45.623Z,39.38
2018-12-08T10:20:45.578Z,45.00
2018-12-08T10:21:45.567Z,45.00
2018-12-08T10:22:45.559Z,45.00
2018-12-08T10:23:45.552Z,45.00
2018-12-08T10:24:45.561Z,45.00
2018-12-08T10:25:45.526Z,45.00
2018-12-08T10:26:45.514Z,45.00
2018-12-08T10:27:45.502Z,50.62
2018-12-08T10:28:45.492Z,50.62
2018-12-08T10:29:45.521Z,50.62
2018-12-08T10:30:45.473Z,50.62
2018-12-08T10:31:45.469Z,45.00
2018-12-08T10:32:45.447Z,45.00
2018-12-08T10:33:45.437Z,56.25
2018-12-08T10:34:45.458Z,61.88
2018-12-08T10:35:45.418Z,56.25
2018-12-08T10:36:45.408Z,56.25
2018-12-08T10:37:45.406Z,50.62
2018-12-08T10:38:45.382Z,56.25
2018-12-08T10:39:45.429Z,56.25
2018-12-08T10:40:45.366Z,61.88
2018-12-08T10:41:45.350Z,67.50
2018-12-08T10:42:45.431Z,61.88
2018-12-08T10:43:45.347Z,56.25
2018-12-08T10:44:45.346Z,50.62
2018-12-08T10:45:45.330Z,56.25
2018-12-08T10:46:45.305Z,45.00
2018-12-08T10:47:45.287Z,45.00
2018-12-08T10:48:45.273Z,50.62
2018-12-08T10:49:45.299Z,45.00
2018-12-08T10:50:45.251Z,45.00
2018-12-08T10:51:45.241Z,45.00
2018-12-08T10:52:45.231Z,50.62
2018-12-08T10:53:45.221Z,50.62
2018-12-08T10:54:45.239Z,45.00
2018-12-08T10:55:45.197Z,45.00
2018-12-08T10:56:45.187Z,39.38
2018-12-08T10:57:45.179Z,33.75
2018-12-08T10:58:45.164Z,39.38
2018-12-08T10:59:45.189Z,50.62
2018-12-08T11:00:45.277Z,56.25
2018-12-08T11:01:45.144Z,61.88
2018-12-08T11:02:45.130Z,45.00
2018-12-08T11:03:45.116Z,45.00
2018-12-08T11:04:45.127Z,39.38
2018-12-08T11:05:45.090Z,50.62
2018-12-08T11:06:45.085Z,61.88
2018-12-08T11:07:45.077Z,50.62
2018-12-08T11:08:45.056Z,45.00
2018-12-08T11:09:45.080Z,45.00
2018-12-08T11:10:45.052Z,50.62
2018-12-08T11:11:45.028Z,50.62
2018-12-08T11:12:45.024Z,50.62
2018-12-08T11:13:45.003Z,56.25
2018-12-08T11:14:45.035Z,56.25
2018-12-08T11:15:44.979Z,45.00
2018-12-08T11:16:44.975Z,39.38
2018-12-08T11:17:44.958Z,33.75
2018-12-08T11:18:44.968Z,28.12
2018-12-08T11:19:44.970Z,28.12
2018-12-08T11:20:44.932Z,28.12
2018-12-08T11:21:44.918Z,33.75
2018-12-08T11:22:44.907Z,39.38
2018-12-08T11:23:44.911Z,45.00
2018-12-08T11:24:44.911Z,39.38
2018-12-08T11:25:44.896Z,39.38
2018-12-08T11:26:44.863Z,39.38
2018-12-08T11:27:44.869Z,50.62
2018-12-08T11:28:44.917Z,45.00
2018-12-08T11:29:44.858Z,33.75
2018-12-08T11:30:44.817Z,33.75
2018-12-08T11:31:44.812Z,33.75
2018-12-08T11:32:44.804Z,39.38
2018-12-08T11:33:44.786Z,39.38
2018-12-08T11:34:44.801Z,50.62
2018-12-08T11:35:44.768Z,61.88
2018-12-08T11:36:49.525Z,61.88
2018-12-08T11:37:45.744Z,61.88
2018-12-08T11:38:44.730Z,73.12
2018-12-08T11:39:44.758Z,73.12
2018-12-08T11:40:44.709Z,84.38
2018-12-08T11:41:44.703Z,90.00
2018-12-08T11:42:44.687Z,90.00
2018-12-08T11:43:44.676Z,95.62
2018-12-08T11:44:44.704Z,78.75
2018-12-08T11:45:44.653Z,73.12
2018-12-08T11:46:44.641Z,67.50
2018-12-08T11:47:44.636Z,50.62
2018-12-08T11:48:44.652Z,45.00
2018-12-08T11:49:44.619Z,45.00
2018-12-08T11:50:44.627Z,45.00
2018-12-08T11:51:44.588Z,45.00
2018-12-08T11:52:44.683Z,45.00
2018-12-08T11:53:44.567Z,56.25
2018-12-08T11:54:44.553Z,61.88
2018-12-08T11:55:44.567Z,67.50
2018-12-08T11:56:44.535Z,73.12
2018-12-08T11:57:44.522Z,73.12
2018-12-08T11:58:44.513Z,73.12
2018-12-08T11:59:44.507Z,78.75
2018-12-08T12:00:44.513Z,78.75
2018-12-08T12:01:44.487Z,73.12
2018-12-08T12:02:44.470Z,61.88
2018-12-08T12:03:44.465Z,56.25
2018-12-08T12:04:44.447Z,56.25
2018-12-08T12:05:44.599Z,56.25
2018-12-08T12:06:44.422Z,50.62
2018-12-08T12:07:44.411Z,45.00
2018-12-08T12:08:44.415Z,50.62
2018-12-08T12:09:44.388Z,50.62
2018-12-08T12:10:44.430Z,45.00
2018-12-08T12:11:44.369Z,39.38
2018-12-08T12:12:44.355Z,33.75
2018-12-08T12:13:44.344Z,33.75
2018-12-08T12:14:44.333Z,33.75
2018-12-08T12:15:44.347Z,39.38
2018-12-08T12:16:44.310Z,45.00
2018-12-08T12:17:44.300Z,61.88
2018-12-08T12:18:44.290Z,61.88
2018-12-08T12:19:44.278Z,61.88
2018-12-08T12:20:44.295Z,73.12
2018-12-08T12:21:44.260Z,78.75
2018-12-08T12:22:44.247Z,73.12
2018-12-08T12:23:44.234Z,101.25
2018-12-08T12:24:44.223Z,95.62
2018-12-08T12:25:44.239Z,73.12
2018-12-08T12:26:44.203Z,67.50
2018-12-08T12:27:44.192Z,78.75
2018-12-08T12:28:44.184Z,78.75
2018-12-08T12:29:44.168Z,73.12
2018-12-08T12:30:44.181Z,61.88
2018-12-08T12:31:44.151Z,61.88
2018-12-08T12:32:44.137Z,45.00
2018-12-08T12:33:44.133Z,39.38
2018-12-08T12:34:44.113Z,45.00
2018-12-08T12:35:44.129Z,50.62
2018-12-08T12:36:44.096Z,50.62
2018-12-08T12:37:44.081Z,50.62
2018-12-08T12:38:44.073Z,45.00
2018-12-08T12:39:44.061Z,45.00
2018-12-08T12:40:44.077Z,50.62
2018-12-08T12:41:44.050Z,45.00
2018-12-08T12:42:44.028Z,56.25
2018-12-08T12:43:44.015Z,61.88
2018-12-08T12:44:44.002Z,50.62
2018-12-08T12:45:44.022Z,45.00
2018-12-08T12:46:43.985Z,39.38
2018-12-08T12:47:43.977Z,39.38
2018-12-08T12:48:43.960Z,39.38
2018-12-08T12:49:43.947Z,39.38
2018-12-08T12:50:43.959Z,39.38
2018-12-08T12:51:43.924Z,39.38
2018-12-08T12:52:43.912Z,39.38
2018-12-08T12:53:43.903Z,39.38
2018-12-08T12:54:43.893Z,45.00
2018-12-08T12:55:43.926Z,39.38
2018-12-08T12:56:43.872Z,39.38
2018-12-08T12:57:43.859Z,39.38
2018-12-08T12:58:43.865Z,39.38
2018-12-08T12:59:43.838Z,39.38
2018-12-08T13:00:43.854Z,39.38
2018-12-08T13:01:43.815Z,39.38
2018-12-08T13:02:43.827Z,33.75
2018-12-08T13:03:43.795Z,28.12
2018-12-08T13:04:43.791Z,33.75
2018-12-08T13:05:43.794Z,33.75
2018-12-08T13:06:43.780Z,33.75
2018-12-08T13:07:43.756Z,28.12